sensor_id;sensor_type;location;lat;lon;timestamp;P1;durP1;ratioP1;P2;durP2;ratioP2
53052;SDS011;38934;52.690;6.184;2023-04-01T00:00:23;9.10;;;5.32;;
53052;SDS011;38934;52.690;6.184;2023-04-01T00:02:49;7.43;;;5.10;;
53052;SDS011;38934;52.690;6.184;2023-04-01T00:05:15;7.78;;;5.72;;
53052;SDS011;38934;52.690;6.184;2023-04-01T00:07:41;6.75;;;5.63;;
53052;SDS011;38934;52.690;6.184;2023-04-01T00:10:08;10.68;;;6.07;;
53052;SDS011;38934;52.690;6.184;2023-04-01T00:12:36;6.45;;;5.32;;
53052;SDS011;38934;52.690;6.184;2023-04-01T00:15:03;7.57;;;5.60;;
53052;SDS011;38934;52.690;6.184;2023-04-01T00:17:29;13.73;;;5.53;;
53052;SDS011;38934;52.690;6.184;2023-04-01T00:19:55;9.50;;;5.80;;
53052;SDS011;38934;52.690;6.184;2023-04-01T00:22:22;6.38;;;5.07;;
53052;SDS011;38934;52.690;6.184;2023-04-01T00:24:51;8.90;;;5.65;;
53052;SDS011;38934;52.690;6.184;2023-04-01T00:27:17;7.80;;;5.65;;
53052;SDS011;38934;52.690;6.184;2023-04-01T00:29:43;7.53;;;5.65;;
53052;SDS011;38934;52.690;6.184;2023-04-01T00:32:10;10.85;;;5.47;;
53052;SDS011;38934;52.690;6.184;2023-04-01T00:34:36;7.72;;;5.63;;
53052;SDS011;38934;52.690;6.184;2023-04-01T00:37:03;8.90;;;5.88;;
53052;SDS011;38934;52.690;6.184;2023-04-01T00:39:29;7.85;;;5.43;;
53052;SDS011;38934;52.690;6.184;2023-04-01T00:41:56;8.02;;;5.45;;
53052;SDS011;38934;52.690;6.184;2023-04-01T00:44:23;10.93;;;5.80;;
53052;SDS011;38934;52.690;6.184;2023-04-01T00:46:51;6.85;;;5.30;;
53052;SDS011;38934;52.690;6.184;2023-04-01T00:49:21;7.63;;;5.68;;
53052;SDS011;38934;52.690;6.184;2023-04-01T00:51:51;6.95;;;5.15;;
53052;SDS011;38934;52.690;6.184;2023-04-01T00:54:21;9.52;;;5.32;;
53052;SDS011;38934;52.690;6.184;2023-04-01T00:56:53;8.30;;;5.78;;
53052;SDS011;38934;52.690;6.184;2023-04-01T00:59:30;7.13;;;5.47;;
53052;SDS011;38934;52.690;6.184;2023-04-01T01:02:03;9.65;;;5.82;;
53052;SDS011;38934;52.690;6.184;2023-04-01T01:04:32;9.45;;;6.07;;
53052;SDS011;38934;52.690;6.184;2023-04-01T01:07:10;7.75;;;5.57;;
53052;SDS011;38934;52.690;6.184;2023-04-01T01:12:23;8.45;;;5.18;;
53052;SDS011;38934;52.690;6.184;2023-04-01T01:15:02;8.57;;;5.20;;
53052;SDS011;38934;52.690;6.184;2023-04-01T01:36:34;8.07;;;5.72;;
53052;SDS011;38934;52.690;6.184;2023-04-01T01:39:02;8.40;;;6.07;;
53052;SDS011;38934;52.690;6.184;2023-04-01T01:41:29;10.13;;;6.60;;
53052;SDS011;38934;52.690;6.184;2023-04-01T01:43:57;9.80;;;5.55;;
53052;SDS011;38934;52.690;6.184;2023-04-01T01:46:27;9.85;;;6.75;;
53052;SDS011;38934;52.690;6.184;2023-04-01T01:48:54;9.25;;;5.93;;
53052;SDS011;38934;52.690;6.184;2023-04-01T01:51:20;6.88;;;5.28;;
53052;SDS011;38934;52.690;6.184;2023-04-01T01:53:47;6.63;;;5.15;;
53052;SDS011;38934;52.690;6.184;2023-04-01T01:56:13;8.82;;;5.60;;
53052;SDS011;38934;52.690;6.184;2023-04-01T02:01:11;8.82;;;5.68;;
53052;SDS011;38934;52.690;6.184;2023-04-01T02:03:39;7.78;;;5.35;;
53052;SDS011;38934;52.690;6.184;2023-04-01T02:06:07;8.75;;;5.93;;
53052;SDS011;38934;52.690;6.184;2023-04-01T02:11:17;9.85;;;5.85;;
53052;SDS011;38934;52.690;6.184;2023-04-01T02:13:56;7.18;;;5.53;;
53052;SDS011;38934;52.690;6.184;2023-04-01T02:16:27;11.68;;;6.13;;
53052;SDS011;38934;52.690;6.184;2023-04-01T02:18:57;9.18;;;5.60;;
53052;SDS011;38934;52.690;6.184;2023-04-01T02:21:26;9.05;;;6.00;;
53052;SDS011;38934;52.690;6.184;2023-04-01T02:23:55;10.77;;;5.90;;
53052;SDS011;38934;52.690;6.184;2023-04-01T02:26:22;8.45;;;5.70;;
53052;SDS011;38934;52.690;6.184;2023-04-01T02:28:50;8.32;;;5.55;;
53052;SDS011;38934;52.690;6.184;2023-04-01T02:31:19;8.80;;;5.90;;
53052;SDS011;38934;52.690;6.184;2023-04-01T02:33:45;9.98;;;6.25;;
53052;SDS011;38934;52.690;6.184;2023-04-01T02:36:13;10.20;;;6.68;;
53052;SDS011;38934;52.690;6.184;2023-04-01T02:38:40;9.90;;;6.40;;
53052;SDS011;38934;52.690;6.184;2023-04-01T02:41:07;10.45;;;7.00;;
53052;SDS011;38934;52.690;6.184;2023-04-01T02:43:32;9.05;;;5.70;;
53052;SDS011;38934;52.690;6.184;2023-04-01T02:45:58;9.65;;;6.50;;
53052;SDS011;38934;52.690;6.184;2023-04-01T02:48:24;11.13;;;6.40;;
53052;SDS011;38934;52.690;6.184;2023-04-01T02:50:50;8.40;;;5.93;;
53052;SDS011;38934;52.690;6.184;2023-04-01T02:53:16;11.27;;;7.25;;
53052;SDS011;38934;52.690;6.184;2023-04-01T02:55:42;10.35;;;6.43;;
53052;SDS011;38934;52.690;6.184;2023-04-01T02:58:08;8.35;;;5.80;;
53052;SDS011;38934;52.690;6.184;2023-04-01T03:00:33;9.88;;;6.72;;
53052;SDS011;38934;52.690;6.184;2023-04-01T03:02:59;10.85;;;6.28;;
53052;SDS011;38934;52.690;6.184;2023-04-01T03:05:25;11.48;;;7.35;;
53052;SDS011;38934;52.690;6.184;2023-04-01T03:07:50;10.73;;;7.18;;
53052;SDS011;38934;52.690;6.184;2023-04-01T03:10:16;10.75;;;7.07;;
53052;SDS011;38934;52.690;6.184;2023-04-01T03:12:42;8.65;;;6.25;;
53052;SDS011;38934;52.690;6.184;2023-04-01T03:15:10;10.45;;;7.00;;
53052;SDS011;38934;52.690;6.184;2023-04-01T03:17:37;13.52;;;7.95;;
53052;SDS011;38934;52.690;6.184;2023-04-01T03:20:03;12.75;;;6.72;;
53052;SDS011;38934;52.690;6.184;2023-04-01T03:22:30;10.20;;;6.75;;
53052;SDS011;38934;52.690;6.184;2023-04-01T03:24:56;10.02;;;6.70;;
53052;SDS011;38934;52.690;6.184;2023-04-01T03:27:22;10.90;;;6.32;;
53052;SDS011;38934;52.690;6.184;2023-04-01T03:29:48;11.85;;;7.20;;
53052;SDS011;38934;52.690;6.184;2023-04-01T03:32:14;11.70;;;7.15;;
53052;SDS011;38934;52.690;6.184;2023-04-01T03:34:40;11.88;;;7.10;;
53052;SDS011;38934;52.690;6.184;2023-04-01T03:37:05;11.23;;;7.35;;
53052;SDS011;38934;52.690;6.184;2023-04-01T03:39:31;13.55;;;7.18;;
53052;SDS011;38934;52.690;6.184;2023-04-01T03:41:57;11.63;;;7.22;;
53052;SDS011;38934;52.690;6.184;2023-04-01T03:44:23;12.82;;;7.00;;
53052;SDS011;38934;52.690;6.184;2023-04-01T03:46:49;13.25;;;7.88;;
53052;SDS011;38934;52.690;6.184;2023-04-01T03:49:14;13.70;;;8.35;;
53052;SDS011;38934;52.690;6.184;2023-04-01T03:51:41;13.93;;;7.55;;
53052;SDS011;38934;52.690;6.184;2023-04-01T03:54:07;13.20;;;8.07;;
53052;SDS011;38934;52.690;6.184;2023-04-01T03:56:34;11.15;;;6.93;;
53052;SDS011;38934;52.690;6.184;2023-04-01T03:59:04;12.48;;;7.75;;
53052;SDS011;38934;52.690;6.184;2023-04-01T04:01:33;18.55;;;8.88;;
53052;SDS011;38934;52.690;6.184;2023-04-01T04:03:59;16.40;;;8.60;;
53052;SDS011;38934;52.690;6.184;2023-04-01T04:06:25;18.00;;;9.45;;
53052;SDS011;38934;52.690;6.184;2023-04-01T04:08:51;18.10;;;9.48;;
53052;SDS011;38934;52.690;6.184;2023-04-01T04:11:17;14.80;;;8.68;;
53052;SDS011;38934;52.690;6.184;2023-04-01T04:13:44;17.52;;;8.63;;
53052;SDS011;38934;52.690;6.184;2023-04-01T04:16:09;16.20;;;9.32;;
53052;SDS011;38934;52.690;6.184;2023-04-01T04:18:35;15.95;;;9.07;;
53052;SDS011;38934;52.690;6.184;2023-04-01T04:21:02;22.33;;;10.27;;
53052;SDS011;38934;52.690;6.184;2023-04-01T04:23:28;15.70;;;8.93;;
53052;SDS011;38934;52.690;6.184;2023-04-01T04:26:02;19.98;;;8.95;;
53052;SDS011;38934;52.690;6.184;2023-04-01T04:28:30;16.95;;;9.18;;
53052;SDS011;38934;52.690;6.184;2023-04-01T04:30:56;26.60;;;10.90;;
53052;SDS011;38934;52.690;6.184;2023-04-01T04:33:23;15.57;;;8.38;;
53052;SDS011;38934;52.690;6.184;2023-04-01T04:35:49;18.77;;;9.20;;
53052;SDS011;38934;52.690;6.184;2023-04-01T04:38:16;18.45;;;10.25;;
53052;SDS011;38934;52.690;6.184;2023-04-01T04:40:42;12.57;;;7.05;;
53052;SDS011;38934;52.690;6.184;2023-04-01T04:43:11;17.42;;;10.07;;
53052;SDS011;38934;52.690;6.184;2023-04-01T04:45:39;14.48;;;8.10;;
53052;SDS011;38934;52.690;6.184;2023-04-01T04:48:05;17.85;;;8.35;;
53052;SDS011;38934;52.690;6.184;2023-04-01T04:50:36;21.80;;;9.50;;
53052;SDS011;38934;52.690;6.184;2023-04-01T04:53:02;22.17;;;9.95;;
53052;SDS011;38934;52.690;6.184;2023-04-01T04:55:28;19.65;;;10.48;;
53052;SDS011;38934;52.690;6.184;2023-04-01T04:57:53;19.63;;;9.25;;
53052;SDS011;38934;52.690;6.184;2023-04-01T05:00:19;15.73;;;8.85;;
53052;SDS011;38934;52.690;6.184;2023-04-01T05:02:45;19.40;;;9.50;;
53052;SDS011;38934;52.690;6.184;2023-04-01T05:05:10;20.92;;;8.98;;
53052;SDS011;38934;52.690;6.184;2023-04-01T05:07:36;21.88;;;8.93;;
53052;SDS011;38934;52.690;6.184;2023-04-01T05:10:02;20.30;;;8.05;;
53052;SDS011;38934;52.690;6.184;2023-04-01T05:12:28;14.93;;;7.50;;
53052;SDS011;38934;52.690;6.184;2023-04-01T05:14:53;22.13;;;8.93;;
53052;SDS011;38934;52.690;6.184;2023-04-01T05:17:19;18.40;;;8.60;;
53052;SDS011;38934;52.690;6.184;2023-04-01T05:19:45;22.05;;;10.02;;
53052;SDS011;38934;52.690;6.184;2023-04-01T05:22:10;17.33;;;8.25;;
53052;SDS011;38934;52.690;6.184;2023-04-01T05:24:36;22.85;;;8.90;;
53052;SDS011;38934;52.690;6.184;2023-04-01T05:27:02;26.20;;;9.35;;
53052;SDS011;38934;52.690;6.184;2023-04-01T05:29:29;22.95;;;9.30;;
53052;SDS011;38934;52.690;6.184;2023-04-01T05:31:55;20.60;;;9.68;;
53052;SDS011;38934;52.690;6.184;2023-04-01T05:34:20;18.08;;;8.00;;
53052;SDS011;38934;52.690;6.184;2023-04-01T05:36:46;16.25;;;8.00;;
53052;SDS011;38934;52.690;6.184;2023-04-01T05:39:12;12.38;;;6.50;;
53052;SDS011;38934;52.690;6.184;2023-04-01T05:41:37;11.57;;;5.75;;
53052;SDS011;38934;52.690;6.184;2023-04-01T05:44:03;11.88;;;5.70;;
53052;SDS011;38934;52.690;6.184;2023-04-01T05:46:30;9.77;;;5.28;;
53052;SDS011;38934;52.690;6.184;2023-04-01T05:48:57;10.30;;;5.40;;
53052;SDS011;38934;52.690;6.184;2023-04-01T05:51:22;8.73;;;4.80;;
53052;SDS011;38934;52.690;6.184;2023-04-01T05:53:48;9.30;;;4.40;;
53052;SDS011;38934;52.690;6.184;2023-04-01T05:56:14;8.65;;;4.30;;
53052;SDS011;38934;52.690;6.184;2023-04-01T05:58:40;8.00;;;4.32;;
53052;SDS011;38934;52.690;6.184;2023-04-01T06:01:07;7.55;;;4.00;;
53052;SDS011;38934;52.690;6.184;2023-04-01T06:03:34;6.95;;;4.03;;
53052;SDS011;38934;52.690;6.184;2023-04-01T06:06:00;7.13;;;3.90;;
53052;SDS011;38934;52.690;6.184;2023-04-01T06:08:26;6.88;;;4.00;;
53052;SDS011;38934;52.690;6.184;2023-04-01T06:11:16;7.57;;;4.35;;
53052;SDS011;38934;52.690;6.184;2023-04-01T06:19:47;8.15;;;4.38;;
53052;SDS011;38934;52.690;6.184;2023-04-01T06:25:24;13.35;;;6.78;;
53052;SDS011;38934;52.690;6.184;2023-04-01T06:30:44;16.45;;;6.40;;
53052;SDS011;38934;52.690;6.184;2023-04-01T06:50:00;16.98;;;6.47;;
53052;SDS011;38934;52.690;6.184;2023-04-01T06:55:36;11.77;;;5.28;;
53052;SDS011;38934;52.690;6.184;2023-04-01T06:58:31;12.88;;;5.47;;
53052;SDS011;38934;52.690;6.184;2023-04-01T07:01:03;11.82;;;5.22;;
53052;SDS011;38934;52.690;6.184;2023-04-01T07:03:33;12.98;;;5.85;;
53052;SDS011;38934;52.690;6.184;2023-04-01T07:06:10;9.77;;;5.32;;
53052;SDS011;38934;52.690;6.184;2023-04-01T07:08:59;11.52;;;5.60;;
53052;SDS011;38934;52.690;6.184;2023-04-01T07:11:31;10.43;;;4.80;;
53052;SDS011;38934;52.690;6.184;2023-04-01T07:19:39;10.90;;;4.93;;
53052;SDS011;38934;52.690;6.184;2023-04-01T07:22:32;10.13;;;5.00;;
53052;SDS011;38934;52.690;6.184;2023-04-01T07:25:14;10.00;;;4.70;;
53052;SDS011;38934;52.690;6.184;2023-04-01T07:27:43;9.07;;;4.72;;
53052;SDS011;38934;52.690;6.184;2023-04-01T07:30:17;11.63;;;5.30;;
53052;SDS011;38934;52.690;6.184;2023-04-01T07:35:23;9.48;;;4.60;;
53052;SDS011;38934;52.690;6.184;2023-04-01T07:38:17;9.13;;;4.40;;
53052;SDS011;38934;52.690;6.184;2023-04-01T07:54:57;9.95;;;4.22;;
53052;SDS011;38934;52.690;6.184;2023-04-01T08:10:47;10.05;;;5.63;;
53052;SDS011;38934;52.690;6.184;2023-04-01T08:22:04;8.30;;;5.00;;
53052;SDS011;38934;52.690;6.184;2023-04-01T08:24:53;5.63;;;3.97;;
53052;SDS011;38934;52.690;6.184;2023-04-01T08:30:09;5.45;;;3.22;;
53052;SDS011;38934;52.690;6.184;2023-04-01T08:32:54;4.10;;;2.85;;
53052;SDS011;38934;52.690;6.184;2023-04-01T08:36:22;5.65;;;3.47;;
53052;SDS011;38934;52.690;6.184;2023-04-01T08:58:04;5.05;;;3.60;;
53052;SDS011;38934;52.690;6.184;2023-04-01T09:00:46;5.03;;;3.67;;
53052;SDS011;38934;52.690;6.184;2023-04-01T09:06:51;7.75;;;4.57;;
53052;SDS011;38934;52.690;6.184;2023-04-01T09:43:33;5.53;;;3.53;;
53052;SDS011;38934;52.690;6.184;2023-04-01T09:51:35;5.20;;;3.17;;
53052;SDS011;38934;52.690;6.184;2023-04-01T09:54:22;4.22;;;2.60;;
53052;SDS011;38934;52.690;6.184;2023-04-01T10:05:54;3.55;;;2.65;;
53052;SDS011;38934;52.690;6.184;2023-04-01T10:28:25;8.75;;;5.85;;
53052;SDS011;38934;52.690;6.184;2023-04-01T10:43:15;9.05;;;6.25;;
53052;SDS011;38934;52.690;6.184;2023-04-01T10:46:10;10.48;;;6.65;;
53052;SDS011;38934;52.690;6.184;2023-04-01T10:49:09;9.32;;;6.55;;
53052;SDS011;38934;52.690;6.184;2023-04-01T10:57:01;10.52;;;7.38;;
53052;SDS011;38934;52.690;6.184;2023-04-01T11:05:35;9.75;;;7.22;;
53052;SDS011;38934;52.690;6.184;2023-04-01T11:08:32;9.50;;;6.63;;
53052;SDS011;38934;52.690;6.184;2023-04-01T11:11:41;11.70;;;7.75;;
53052;SDS011;38934;52.690;6.184;2023-04-01T11:17:40;11.18;;;7.72;;
53052;SDS011;38934;52.690;6.184;2023-04-01T11:38:15;12.55;;;8.43;;
53052;SDS011;38934;52.690;6.184;2023-04-01T11:43:36;9.55;;;7.07;;
53052;SDS011;38934;52.690;6.184;2023-04-01T11:46:27;7.97;;;5.68;;
53052;SDS011;38934;52.690;6.184;2023-04-01T11:52:34;7.53;;;5.70;;
53052;SDS011;38934;52.690;6.184;2023-04-01T11:57:59;6.85;;;5.22;;
53052;SDS011;38934;52.690;6.184;2023-04-01T12:08:51;8.32;;;5.82;;
53052;SDS011;38934;52.690;6.184;2023-04-01T12:19:36;11.13;;;6.30;;
53052;SDS011;38934;52.690;6.184;2023-04-01T12:30:47;7.78;;;5.45;;
53052;SDS011;38934;52.690;6.184;2023-04-01T12:33:31;7.05;;;4.95;;
53052;SDS011;38934;52.690;6.184;2023-04-01T12:36:05;7.28;;;5.45;;
53052;SDS011;38934;52.690;6.184;2023-04-01T12:39:03;6.28;;;4.55;;
53052;SDS011;38934;52.690;6.184;2023-04-01T12:41:49;7.75;;;5.45;;
53052;SDS011;38934;52.690;6.184;2023-04-01T12:47:12;7.43;;;5.50;;
53052;SDS011;38934;52.690;6.184;2023-04-01T12:55:44;6.63;;;5.10;;
53052;SDS011;38934;52.690;6.184;2023-04-01T13:02:01;6.63;;;5.25;;
53052;SDS011;38934;52.690;6.184;2023-04-01T13:04:21;8.10;;;5.22;;
53052;SDS011;38934;52.690;6.184;2023-04-01T13:23:37;8.50;;;5.88;;
53052;SDS011;38934;52.690;6.184;2023-04-01T13:26:13;9.63;;;6.82;;
53052;SDS011;38934;52.690;6.184;2023-04-01T13:28:42;8.65;;;6.78;;
53052;SDS011;38934;52.690;6.184;2023-04-01T13:34:32;8.40;;;5.88;;
53052;SDS011;38934;52.690;6.184;2023-04-01T13:39:58;9.02;;;6.60;;
53052;SDS011;38934;52.690;6.184;2023-04-01T13:56:23;8.43;;;5.80;;
53052;SDS011;38934;52.690;6.184;2023-04-01T14:13:34;5.88;;;4.72;;
53052;SDS011;38934;52.690;6.184;2023-04-01T14:19:11;6.20;;;4.55;;
53052;SDS011;38934;52.690;6.184;2023-04-01T14:22:10;6.70;;;5.22;;
53052;SDS011;38934;52.690;6.184;2023-04-01T14:42:03;5.68;;;4.47;;
53052;SDS011;38934;52.690;6.184;2023-04-01T14:47:48;6.18;;;4.50;;
53052;SDS011;38934;52.690;6.184;2023-04-01T14:50:22;5.72;;;4.10;;
53052;SDS011;38934;52.690;6.184;2023-04-01T14:52:57;5.00;;;4.13;;
53052;SDS011;38934;52.690;6.184;2023-04-01T14:55:48;5.13;;;4.55;;
53052;SDS011;38934;52.690;6.184;2023-04-01T14:58:17;5.05;;;4.15;;
53052;SDS011;38934;52.690;6.184;2023-04-01T15:05:56;4.55;;;3.80;;
53052;SDS011;38934;52.690;6.184;2023-04-01T15:11:33;4.32;;;3.70;;
53052;SDS011;38934;52.690;6.184;2023-04-01T15:14:26;4.88;;;3.90;;
53052;SDS011;38934;52.690;6.184;2023-04-01T15:17:23;4.25;;;3.40;;
53052;SDS011;38934;52.690;6.184;2023-04-01T15:31:59;3.83;;;3.38;;
53052;SDS011;38934;52.690;6.184;2023-04-01T15:54:17;4.25;;;3.72;;
53052;SDS011;38934;52.690;6.184;2023-04-01T15:57:04;4.30;;;3.70;;
53052;SDS011;38934;52.690;6.184;2023-04-01T16:02:35;4.63;;;3.85;;
53052;SDS011;38934;52.690;6.184;2023-04-01T16:16:57;5.75;;;4.78;;
53052;SDS011;38934;52.690;6.184;2023-04-01T16:22:23;5.40;;;4.45;;
53052;SDS011;38934;52.690;6.184;2023-04-01T16:33:52;6.30;;;4.50;;
53052;SDS011;38934;52.690;6.184;2023-04-01T16:50:22;6.13;;;4.75;;
53052;SDS011;38934;52.690;6.184;2023-04-01T16:58:18;4.72;;;4.05;;
53052;SDS011;38934;52.690;6.184;2023-04-01T17:03:49;5.50;;;4.75;;
53052;SDS011;38934;52.690;6.184;2023-04-01T17:06:40;5.55;;;4.13;;
53052;SDS011;38934;52.690;6.184;2023-04-01T17:14:33;4.75;;;3.90;;
53052;SDS011;38934;52.690;6.184;2023-04-01T17:17:45;4.32;;;3.53;;
53052;SDS011;38934;52.690;6.184;2023-04-01T17:22:55;5.90;;;4.72;;
53052;SDS011;38934;52.690;6.184;2023-04-01T17:25:40;8.35;;;5.07;;
53052;SDS011;38934;52.690;6.184;2023-04-01T17:37:59;9.88;;;7.65;;
53052;SDS011;38934;52.690;6.184;2023-04-01T17:41:04;9.45;;;6.90;;
53052;SDS011;38934;52.690;6.184;2023-04-01T17:57:27;10.90;;;7.88;;
53052;SDS011;38934;52.690;6.184;2023-04-01T18:00:16;9.02;;;7.70;;
53052;SDS011;38934;52.690;6.184;2023-04-01T18:05:42;9.85;;;7.55;;
53052;SDS011;38934;52.690;6.184;2023-04-01T18:08:26;10.10;;;7.90;;
53052;SDS011;38934;52.690;6.184;2023-04-01T18:13:45;12.65;;;7.90;;
53052;SDS011;38934;52.690;6.184;2023-04-01T18:19:15;10.88;;;7.63;;
53052;SDS011;38934;52.690;6.184;2023-04-01T18:21:46;10.02;;;8.13;;
53052;SDS011;38934;52.690;6.184;2023-04-01T18:24:30;10.07;;;7.07;;
53052;SDS011;38934;52.690;6.184;2023-04-01T18:27:15;9.63;;;7.50;;
53052;SDS011;38934;52.690;6.184;2023-04-01T18:29:50;9.82;;;7.28;;
53052;SDS011;38934;52.690;6.184;2023-04-01T18:37:54;11.00;;;6.80;;
53052;SDS011;38934;52.690;6.184;2023-04-01T18:40:43;11.98;;;7.00;;
53052;SDS011;38934;52.690;6.184;2023-04-01T18:45:59;10.32;;;7.50;;
53052;SDS011;38934;52.690;6.184;2023-04-01T18:51:10;12.02;;;8.52;;
53052;SDS011;38934;52.690;6.184;2023-04-01T18:53:56;11.77;;;7.95;;
53052;SDS011;38934;52.690;6.184;2023-04-01T18:56:45;10.10;;;7.30;;
53052;SDS011;38934;52.690;6.184;2023-04-01T18:59:25;9.43;;;6.10;;
53052;SDS011;38934;52.690;6.184;2023-04-01T19:05:00;11.63;;;7.07;;
53052;SDS011;38934;52.690;6.184;2023-04-01T19:10:17;9.82;;;7.28;;
53052;SDS011;38934;52.690;6.184;2023-04-01T19:13:09;11.18;;;8.00;;
53052;SDS011;38934;52.690;6.184;2023-04-01T19:15:47;11.95;;;8.35;;
53052;SDS011;38934;52.690;6.184;2023-04-01T19:29:33;11.30;;;8.52;;
53052;SDS011;38934;52.690;6.184;2023-04-01T19:34:58;11.32;;;8.52;;
53052;SDS011;38934;52.690;6.184;2023-04-01T19:51:35;11.77;;;8.77;;
53052;SDS011;38934;52.690;6.184;2023-04-01T19:57:00;12.38;;;9.07;;
53052;SDS011;38934;52.690;6.184;2023-04-01T20:04:55;13.98;;;9.23;;
53052;SDS011;38934;52.690;6.184;2023-04-01T20:07:32;14.88;;;10.48;;
53052;SDS011;38934;52.690;6.184;2023-04-01T20:17:48;15.15;;;9.95;;
53052;SDS011;38934;52.690;6.184;2023-04-01T20:20:21;14.70;;;9.98;;
53052;SDS011;38934;52.690;6.184;2023-04-01T20:25:42;16.00;;;10.60;;
53052;SDS011;38934;52.690;6.184;2023-04-01T20:36:46;13.60;;;9.88;;
53052;SDS011;38934;52.690;6.184;2023-04-01T20:42:34;13.20;;;9.02;;
53052;SDS011;38934;52.690;6.184;2023-04-01T20:45:32;14.38;;;9.50;;
53052;SDS011;38934;52.690;6.184;2023-04-01T20:51:19;16.90;;;10.45;;
53052;SDS011;38934;52.690;6.184;2023-04-01T20:59:41;13.20;;;9.55;;
53052;SDS011;38934;52.690;6.184;2023-04-01T21:02:32;16.70;;;9.38;;
53052;SDS011;38934;52.690;6.184;2023-04-01T21:29:51;15.13;;;10.52;;
53052;SDS011;38934;52.690;6.184;2023-04-01T21:32:37;18.67;;;10.50;;
53052;SDS011;38934;52.690;6.184;2023-04-01T21:35:21;13.07;;;9.85;;
53052;SDS011;38934;52.690;6.184;2023-04-01T21:48:58;15.93;;;10.60;;
53052;SDS011;38934;52.690;6.184;2023-04-01T21:54:50;18.33;;;11.00;;
53052;SDS011;38934;52.690;6.184;2023-04-01T22:06:00;16.58;;;10.55;;
53052;SDS011;38934;52.690;6.184;2023-04-01T22:11:23;14.77;;;9.55;;
53052;SDS011;38934;52.690;6.184;2023-04-01T22:19:56;13.65;;;9.80;;
53052;SDS011;38934;52.690;6.184;2023-04-01T22:30:31;16.83;;;10.07;;
53052;SDS011;38934;52.690;6.184;2023-04-01T22:33:10;14.85;;;10.05;;
53052;SDS011;38934;52.690;6.184;2023-04-01T22:36:02;16.63;;;10.30;;
53052;SDS011;38934;52.690;6.184;2023-04-01T22:38:53;15.10;;;9.55;;
53052;SDS011;38934;52.690;6.184;2023-04-01T22:44:00;14.43;;;10.48;;
53052;SDS011;38934;52.690;6.184;2023-04-01T22:46:36;17.67;;;9.43;;
53052;SDS011;38934;52.690;6.184;2023-04-01T22:49:21;15.73;;;10.02;;
53052;SDS011;38934;52.690;6.184;2023-04-01T22:52:05;15.23;;;9.30;;
53052;SDS011;38934;52.690;6.184;2023-04-01T22:54:44;14.63;;;9.68;;
53052;SDS011;38934;52.690;6.184;2023-04-01T22:57:37;18.45;;;10.27;;
53052;SDS011;38934;52.690;6.184;2023-04-01T23:00:13;16.15;;;9.23;;
53052;SDS011;38934;52.690;6.184;2023-04-01T23:02:59;16.42;;;10.05;;
53052;SDS011;38934;52.690;6.184;2023-04-01T23:05:31;16.52;;;10.30;;
53052;SDS011;38934;52.690;6.184;2023-04-01T23:10:53;14.73;;;9.48;;
53052;SDS011;38934;52.690;6.184;2023-04-01T23:13:27;16.13;;;9.65;;
53052;SDS011;38934;52.690;6.184;2023-04-01T23:15:59;17.52;;;9.85;;
53052;SDS011;38934;52.690;6.184;2023-04-01T23:21:49;14.43;;;9.25;;
53052;SDS011;38934;52.690;6.184;2023-04-01T23:24:21;16.23;;;9.13;;
53052;SDS011;38934;52.690;6.184;2023-04-01T23:27:03;16.17;;;9.95;;
53052;SDS011;38934;52.690;6.184;2023-04-01T23:29:41;15.93;;;10.15;;
53052;SDS011;38934;52.690;6.184;2023-04-01T23:32:17;13.13;;;9.68;;
53052;SDS011;38934;52.690;6.184;2023-04-01T23:34:49;17.52;;;9.07;;
53052;SDS011;38934;52.690;6.184;2023-04-01T23:37:21;16.23;;;9.55;;
53052;SDS011;38934;52.690;6.184;2023-04-01T23:39:52;15.50;;;9.57;;
53052;SDS011;38934;52.690;6.184;2023-04-01T23:42:23;15.20;;;8.90;;
53052;SDS011;38934;52.690;6.184;2023-04-01T23:44:55;15.75;;;8.88;;
53052;SDS011;38934;52.690;6.184;2023-04-01T23:49:57;14.80;;;9.02;;
53052;SDS011;38934;52.690;6.184;2023-04-01T23:52:27;13.35;;;9.15;;
53052;SDS011;38934;52.690;6.184;2023-04-01T23:55:11;13.50;;;9.52;;
53052;SDS011;38934;52.690;6.184;2023-04-01T23:57:43;12.43;;;8.63;;
